createdAt,value
2017-12-30T00:01:08.302Z,72.53
2017-12-30T00:03:35.784Z,73.16
2017-12-30T00:06:03.277Z,73.90
2017-12-30T00:08:30.762Z,74.38
2017-12-30T00:10:58.234Z,74.41
2017-12-30T00:13:25.726Z,73.40
2017-12-30T00:15:53.229Z,73.29
2017-12-30T00:18:20.687Z,73.07
2017-12-30T00:20:48.156Z,72.70
2017-12-30T00:23:15.611Z,72.92
2017-12-30T00:25:43.073Z,73.07
2017-12-30T00:28:10.545Z,73.03
2017-12-30T00:30:37.998Z,72.87
2017-12-30T00:33:05.440Z,72.80
2017-12-30T00:35:32.902Z,72.88
2017-12-30T00:38:00.377Z,72.99
2017-12-30T00:40:27.822Z,73.02
2017-12-30T00:42:55.351Z,72.87
2017-12-30T00:45:22.850Z,72.66
2017-12-30T00:47:50.297Z,72.44
2017-12-30T00:50:17.746Z,72.31
2017-12-30T00:52:45.232Z,72.33
2017-12-30T00:55:12.702Z,72.23
2017-12-30T00:57:40.231Z,72.19
2017-12-30T01:00:07.699Z,72.09
2017-12-30T01:02:35.176Z,72.11
2017-12-30T01:05:02.955Z,71.99
2017-12-30T01:07:30.445Z,72.11
2017-12-30T01:09:57.909Z,72.16
2017-12-30T01:12:25.398Z,72.05
2017-12-30T01:14:52.851Z,72.05
2017-12-30T01:17:20.309Z,72.04
2017-12-30T01:19:47.821Z,71.37
2017-12-30T01:22:15.354Z,70.56
2017-12-30T01:24:42.803Z,70.65
2017-12-30T01:27:10.387Z,70.36
2017-12-30T01:29:37.892Z,70.36
2017-12-30T01:32:05.351Z,70.43
2017-12-30T01:34:32.839Z,70.37
2017-12-30T01:37:00.317Z,70.29
2017-12-30T01:39:27.794Z,70.18
2017-12-30T01:41:55.396Z,70.12
2017-12-30T01:44:22.862Z,69.80
2017-12-30T01:46:50.361Z,69.70
2017-12-30T01:49:17.886Z,69.09
2017-12-30T01:51:45.367Z,69.19
2017-12-30T01:54:12.861Z,68.83
2017-12-30T01:56:40.365Z,69.15
2017-12-30T01:59:07.844Z,69.37
2017-12-30T02:01:35.299Z,68.90
2017-12-30T02:04:02.788Z,68.92
2017-12-30T02:06:30.750Z,68.87
2017-12-30T02:08:58.212Z,68.63
2017-12-30T02:11:25.707Z,68.08
2017-12-30T02:13:53.225Z,67.20
2017-12-30T02:16:20.691Z,67.28
2017-12-30T02:18:48.188Z,66.56
2017-12-30T02:21:15.643Z,66.61
2017-12-30T02:23:43.126Z,66.68
2017-12-30T02:26:10.641Z,66.08
2017-12-30T02:28:38.109Z,66.24
2017-12-30T02:31:05.579Z,65.80
2017-12-30T02:33:33.108Z,65.07
2017-12-30T02:36:00.581Z,65.38
2017-12-30T02:38:28.044Z,65.52
2017-12-30T02:40:55.551Z,66.58
2017-12-30T02:43:23.022Z,67.37
2017-12-30T02:45:50.544Z,68.08
2017-12-30T02:48:18.100Z,68.80
2017-12-30T02:50:45.610Z,69.01
2017-12-30T02:53:13.091Z,68.95
2017-12-30T02:55:40.551Z,69.16
2017-12-30T02:58:08.020Z,68.59
2017-12-30T03:00:35.474Z,69.05
2017-12-30T03:03:02.936Z,69.94
2017-12-30T03:05:30.424Z,69.78
2017-12-30T03:07:57.919Z,69.37
2017-12-30T03:10:25.406Z,69.74
2017-12-30T03:12:52.900Z,70.30
2017-12-30T03:15:22.264Z,70.85
2017-12-30T03:17:49.728Z,70.88
2017-12-30T03:20:17.214Z,71.22
2017-12-30T03:22:44.723Z,70.97
2017-12-30T03:25:12.193Z,70.99
2017-12-30T03:27:39.701Z,71.24
2017-12-30T03:30:07.227Z,71.79
2017-12-30T03:32:34.724Z,71.71
2017-12-30T03:35:02.276Z,72.38
2017-12-30T03:37:29.755Z,71.83
2017-12-30T03:39:57.231Z,71.44
2017-12-30T03:42:24.765Z,71.76
2017-12-30T03:44:52.249Z,71.67
2017-12-30T03:47:19.735Z,71.61
2017-12-30T03:49:47.221Z,71.85
2017-12-30T03:52:14.703Z,71.49
2017-12-30T03:54:42.185Z,71.85
2017-12-30T03:57:09.650Z,70.79
2017-12-30T03:59:37.120Z,70.61
2017-12-30T04:02:04.619Z,70.54
2017-12-30T04:04:32.076Z,70.46
2017-12-30T04:06:59.547Z,69.17
2017-12-30T04:09:27.076Z,69.08
2017-12-30T04:11:54.575Z,68.79
2017-12-30T04:14:22.685Z,68.90
2017-12-30T04:16:50.147Z,68.89
2017-12-30T04:19:17.611Z,69.09
2017-12-30T04:21:53.069Z,68.51
2017-12-30T04:24:20.566Z,68.66
2017-12-30T04:26:48.044Z,68.27
2017-12-30T04:29:15.558Z,68.01
2017-12-30T04:31:43.051Z,67.14
2017-12-30T04:34:10.511Z,65.15
2017-12-30T04:36:37.967Z,65.23
2017-12-30T04:39:05.419Z,64.29
2017-12-30T04:41:32.908Z,63.90
2017-12-30T04:44:00.362Z,63.17
2017-12-30T04:46:27.919Z,62.03
2017-12-30T04:48:55.661Z,61.74
2017-12-30T04:51:23.114Z,62.09
2017-12-30T04:53:50.592Z,64.21
2017-12-30T04:56:18.074Z,65.32
2017-12-30T04:58:45.531Z,65.59
2017-12-30T05:01:13.038Z,65.92
2017-12-30T05:03:40.509Z,64.91
2017-12-30T05:06:08.066Z,63.95
2017-12-30T05:08:35.542Z,63.07
2017-12-30T05:11:03.004Z,62.66
2017-12-30T05:13:30.497Z,62.62
2017-12-30T05:15:57.954Z,62.69
2017-12-30T05:18:25.411Z,62.53
2017-12-30T05:20:52.940Z,62.27
2017-12-30T05:23:20.406Z,62.63
2017-12-30T05:25:47.886Z,62.33
2017-12-30T05:28:15.346Z,62.22
2017-12-30T05:30:42.798Z,61.99
2017-12-30T05:33:10.313Z,61.40
2017-12-30T05:35:37.790Z,60.25
2017-12-30T05:38:05.239Z,60.33
2017-12-30T05:40:32.702Z,59.41
2017-12-30T05:43:00.154Z,59.78
2017-12-30T05:45:27.642Z,60.08
2017-12-30T05:47:55.093Z,60.13
2017-12-30T05:50:22.753Z,60.74
2017-12-30T05:52:50.232Z,61.06
2017-12-30T05:55:17.898Z,61.32
2017-12-30T05:57:45.412Z,61.46
2017-12-30T06:00:12.876Z,61.82
2017-12-30T06:02:40.330Z,61.67
2017-12-30T06:05:07.798Z,61.78
2017-12-30T06:07:35.296Z,61.82
2017-12-30T06:10:02.753Z,62.13
2017-12-30T06:12:30.246Z,61.94
2017-12-30T06:14:57.704Z,61.59
2017-12-30T06:17:25.158Z,61.66
2017-12-30T06:19:52.622Z,61.87
2017-12-30T06:22:20.086Z,62.14
2017-12-30T06:24:47.555Z,62.23
2017-12-30T06:27:15.051Z,62.18
2017-12-30T06:29:42.492Z,62.24
2017-12-30T06:32:09.963Z,61.76
2017-12-30T06:34:37.419Z,62.27
2017-12-30T06:37:04.879Z,62.28
2017-12-30T06:39:32.355Z,62.45
2017-12-30T06:41:59.810Z,62.54
2017-12-30T06:44:27.297Z,62.29
2017-12-30T06:46:54.770Z,62.28
2017-12-30T06:49:22.228Z,62.42
2017-12-30T06:51:49.694Z,62.57
2017-12-30T06:54:17.149Z,63.51
2017-12-30T06:56:44.623Z,63.27
2017-12-30T06:59:12.079Z,62.91
2017-12-30T07:01:39.514Z,63.26
2017-12-30T07:04:06.984Z,63.31
2017-12-30T07:06:34.443Z,63.18
2017-12-30T07:09:01.897Z,63.20
2017-12-30T07:11:29.578Z,63.23
2017-12-30T07:13:57.092Z,63.11
2017-12-30T07:16:24.572Z,63.17
2017-12-30T07:18:52.030Z,63.19
2017-12-30T07:21:19.458Z,63.29
2017-12-30T07:23:46.917Z,63.48
2017-12-30T07:26:14.383Z,63.59
2017-12-30T07:28:45.042Z,63.42
2017-12-30T07:31:12.783Z,62.90
2017-12-30T07:33:40.255Z,62.50
2017-12-30T07:36:07.742Z,61.96
2017-12-30T07:38:35.295Z,61.15
2017-12-30T07:41:02.743Z,61.00
2017-12-30T07:43:30.234Z,60.58
2017-12-30T07:45:57.753Z,61.00
2017-12-30T07:48:25.211Z,61.07
2017-12-30T07:50:52.700Z,61.20
2017-12-30T07:53:20.201Z,61.19
2017-12-30T07:55:48.534Z,61.40
2017-12-30T07:58:16.007Z,61.47
2017-12-30T08:00:43.500Z,62.38
2017-12-30T08:03:11.013Z,62.31
2017-12-30T08:05:38.589Z,62.69
2017-12-30T08:08:06.099Z,63.07
2017-12-30T08:10:33.553Z,63.08
2017-12-30T08:13:01.265Z,63.06
2017-12-30T08:15:28.957Z,63.18
2017-12-30T08:17:56.452Z,62.95
2017-12-30T08:20:23.904Z,63.38
2017-12-30T08:22:51.563Z,64.03
2017-12-30T08:25:21.038Z,64.71
2017-12-30T08:27:48.539Z,65.55
2017-12-30T08:30:16.050Z,66.83
2017-12-30T08:32:43.516Z,67.05
2017-12-30T08:35:11.003Z,67.20
2017-12-30T08:37:38.528Z,67.45
2017-12-30T08:40:06.035Z,66.90
2017-12-30T08:42:33.590Z,65.93
2017-12-30T08:45:01.103Z,66.18
2017-12-30T08:47:28.583Z,60.29
2017-12-30T08:49:56.067Z,57.66
2017-12-30T08:52:25.774Z,58.11
2017-12-30T08:57:27.109Z,59.05
2017-12-30T08:59:54.577Z,60.44
2017-12-30T09:02:22.056Z,60.12
2017-12-30T09:04:50.301Z,60.38
2017-12-30T09:07:17.753Z,60.30
2017-12-30T09:09:45.224Z,59.16
2017-12-30T09:12:12.675Z,58.88
2017-12-30T09:14:40.502Z,61.04
2017-12-30T09:17:08.027Z,61.56
2017-12-30T09:19:35.501Z,60.99
2017-12-30T09:22:02.982Z,60.93
2017-12-30T09:24:30.592Z,61.48
2017-12-30T09:26:58.071Z,61.43
2017-12-30T09:29:25.546Z,61.75
2017-12-30T09:31:53.015Z,61.92
2017-12-30T09:34:20.508Z,61.45
2017-12-30T09:36:48.162Z,61.48
2017-12-30T09:39:16.659Z,61.44
2017-12-30T09:41:44.116Z,62.01
2017-12-30T09:44:11.651Z,61.64
2017-12-30T09:46:39.111Z,60.43
2017-12-30T09:49:08.679Z,60.70
2017-12-30T09:51:36.170Z,60.89
2017-12-30T09:54:03.650Z,60.91
2017-12-30T09:56:31.254Z,60.37
2017-12-30T09:58:58.731Z,60.08
2017-12-30T10:01:26.191Z,59.46
2017-12-30T10:03:53.630Z,59.08
2017-12-30T10:06:21.100Z,59.61
2017-12-30T10:08:48.585Z,59.45
2017-12-30T10:11:16.051Z,59.49
2017-12-30T10:13:43.518Z,60.01
2017-12-30T10:16:11.074Z,60.43
2017-12-30T10:18:38.522Z,60.27
2017-12-30T10:21:06.119Z,60.32
2017-12-30T10:23:33.627Z,60.85
2017-12-30T10:26:01.100Z,61.08
2017-12-30T10:28:28.588Z,61.34
2017-12-30T10:30:56.379Z,61.48
2017-12-30T10:33:23.861Z,61.77
2017-12-30T10:35:51.378Z,61.76
2017-12-30T10:38:19.946Z,59.80
2017-12-30T10:40:47.460Z,60.32
2017-12-30T10:43:15.403Z,60.36
2017-12-30T10:45:42.858Z,60.42
2017-12-30T10:48:10.373Z,61.27
2017-12-30T10:50:38.609Z,61.21
2017-12-30T10:53:06.125Z,60.91
2017-12-30T10:55:33.633Z,60.39
2017-12-30T10:58:01.164Z,59.74
2017-12-30T11:00:35.212Z,59.44
2017-12-30T11:03:02.708Z,59.97
2017-12-30T11:05:30.220Z,59.93
2017-12-30T11:07:57.805Z,59.97
2017-12-30T11:10:25.282Z,60.34
2017-12-30T11:12:53.507Z,60.49
2017-12-30T11:15:21.013Z,59.92
2017-12-30T11:17:49.239Z,59.37
2017-12-30T11:20:17.013Z,58.58
2017-12-30T11:22:44.948Z,58.06
2017-12-30T11:25:12.422Z,57.89
2017-12-30T11:27:39.931Z,57.33
2017-12-30T11:30:07.386Z,56.90
2017-12-30T11:32:35.804Z,56.13
2017-12-30T11:35:03.335Z,54.90
2017-12-30T11:37:31.748Z,54.45
2017-12-30T11:39:59.253Z,53.30
2017-12-30T11:42:26.764Z,53.91
2017-12-30T11:44:54.370Z,53.54
2017-12-30T11:47:22.409Z,53.65
2017-12-30T11:49:49.988Z,53.32
2017-12-30T11:52:21.109Z,53.36
2017-12-30T11:54:51.654Z,53.95
2017-12-30T11:57:19.186Z,54.02
2017-12-30T11:59:46.706Z,54.01
2017-12-30T12:02:14.316Z,53.96
2017-12-30T12:04:41.870Z,54.36
2017-12-30T12:07:09.674Z,54.31
2017-12-30T12:09:37.135Z,54.56
2017-12-30T12:12:04.590Z,54.91
2017-12-30T12:14:32.066Z,55.16
2017-12-30T12:17:00.516Z,55.27
2017-12-30T12:19:28.016Z,55.80
2017-12-30T12:21:55.473Z,56.65
2017-12-30T12:24:22.931Z,56.92
2017-12-30T12:26:50.441Z,56.96
2017-12-30T12:29:17.947Z,57.30
2017-12-30T12:31:45.396Z,57.69
2017-12-30T12:34:12.878Z,58.29
2017-12-30T12:36:40.353Z,58.72
2017-12-30T12:39:07.816Z,58.56
2017-12-30T12:41:35.313Z,58.19
2017-12-30T12:44:02.752Z,58.58
2017-12-30T12:46:30.297Z,59.27
2017-12-30T12:51:24.643Z,60.20
2017-12-30T12:53:52.112Z,61.01
2017-12-30T12:56:19.568Z,62.03
2017-12-30T12:58:47.039Z,62.62
2017-12-30T13:01:14.520Z,63.21
2017-12-30T13:03:41.984Z,63.73
2017-12-30T13:06:09.475Z,64.18
2017-12-30T13:08:37.063Z,64.53
2017-12-30T13:11:04.513Z,64.99
2017-12-30T13:13:31.999Z,65.31
2017-12-30T13:15:59.482Z,65.26
2017-12-30T13:18:26.959Z,66.16
2017-12-30T13:20:54.460Z,66.55
2017-12-30T13:23:21.914Z,67.03
2017-12-30T13:25:49.412Z,67.15
2017-12-30T13:28:16.864Z,67.05
2017-12-30T13:30:44.319Z,67.38
2017-12-30T13:33:11.771Z,67.89
2017-12-30T13:35:39.237Z,67.98
2017-12-30T13:38:06.696Z,68.12
2017-12-30T13:40:34.156Z,68.68
2017-12-30T13:43:01.619Z,68.59
2017-12-30T13:45:29.067Z,68.40
2017-12-30T13:47:56.535Z,68.30
2017-12-30T13:50:23.996Z,67.79
2017-12-30T13:52:51.524Z,67.56
2017-12-30T13:55:19.039Z,67.18
2017-12-30T13:57:46.522Z,67.23
2017-12-30T14:00:13.999Z,66.99
2017-12-30T14:02:41.460Z,65.67
2017-12-30T14:05:08.915Z,65.43
2017-12-30T14:07:36.385Z,63.88
2017-12-30T14:10:03.900Z,63.95
2017-12-30T14:12:31.395Z,64.54
2017-12-30T14:14:58.861Z,64.60
2017-12-30T14:17:26.376Z,64.70
2017-12-30T14:19:53.911Z,64.87
2017-12-30T14:22:21.439Z,65.39
2017-12-30T14:24:48.897Z,64.92
2017-12-30T14:27:17.007Z,64.99
2017-12-30T14:29:44.496Z,65.46
2017-12-30T14:32:11.997Z,65.53
2017-12-30T14:34:39.452Z,65.40
2017-12-30T14:37:06.933Z,65.05
2017-12-30T14:39:35.145Z,65.39
2017-12-30T14:42:02.612Z,65.14
2017-12-30T14:44:30.075Z,65.41
2017-12-30T14:46:57.538Z,65.63
2017-12-30T14:49:25.019Z,65.77
2017-12-30T14:51:52.517Z,65.64
2017-12-30T14:54:19.990Z,65.17
2017-12-30T14:56:47.434Z,65.17
2017-12-30T14:59:14.914Z,65.59
2017-12-30T15:01:42.378Z,65.53
2017-12-30T15:04:09.829Z,66.39
2017-12-30T15:06:37.312Z,66.58
2017-12-30T15:09:04.810Z,67.15
2017-12-30T15:11:32.339Z,67.44
2017-12-30T15:13:59.841Z,67.19
2017-12-30T15:16:27.357Z,67.48
2017-12-30T15:18:54.914Z,68.12
2017-12-30T15:21:22.393Z,68.86
2017-12-30T15:23:49.881Z,68.52
2017-12-30T15:26:17.383Z,69.20
2017-12-30T15:28:44.851Z,69.08
2017-12-30T15:31:12.327Z,69.89
2017-12-30T15:33:39.785Z,70.01
2017-12-30T15:36:07.260Z,70.13
2017-12-30T15:38:34.724Z,69.79
2017-12-30T15:41:02.201Z,70.00
2017-12-30T15:43:29.677Z,70.54
2017-12-30T15:45:57.180Z,70.44
2017-12-30T15:48:24.652Z,70.16
2017-12-30T15:50:52.115Z,70.34
2017-12-30T15:53:19.604Z,70.90
2017-12-30T15:55:47.080Z,71.15
2017-12-30T15:58:14.539Z,71.58
2017-12-30T16:00:42.016Z,71.92
2017-12-30T16:03:09.497Z,71.64
2017-12-30T16:05:36.968Z,71.71
2017-12-30T16:08:04.442Z,70.86
2017-12-30T16:10:31.919Z,71.26
2017-12-30T16:12:59.386Z,71.40
2017-12-30T16:15:26.852Z,71.50
2017-12-30T16:17:54.358Z,71.90
2017-12-30T16:20:21.810Z,71.95
2017-12-30T16:22:49.278Z,72.38
2017-12-30T16:25:16.735Z,72.02
2017-12-30T16:27:44.208Z,72.11
2017-12-30T16:30:11.694Z,71.96
2017-12-30T16:32:39.197Z,72.02
2017-12-30T16:35:06.673Z,72.09
2017-12-30T16:37:34.144Z,71.75
2017-12-30T16:40:01.613Z,71.75
2017-12-30T16:42:29.180Z,71.37
2017-12-30T16:44:56.634Z,71.30
2017-12-30T16:47:24.092Z,71.78
2017-12-30T16:49:51.547Z,71.66
2017-12-30T16:52:19.008Z,71.58
2017-12-30T16:54:46.484Z,71.09
2017-12-30T16:57:13.936Z,70.80
2017-12-30T16:59:41.387Z,69.05
2017-12-30T17:02:08.847Z,70.30
2017-12-30T17:04:36.313Z,71.99
2017-12-30T17:07:03.865Z,72.50
2017-12-30T17:09:31.381Z,73.20
2017-12-30T17:11:58.843Z,74.34
2017-12-30T17:14:26.304Z,74.68
2017-12-30T17:22:15.671Z,77.55
2017-12-30T17:24:43.199Z,77.94
2017-12-30T17:27:10.689Z,77.23
2017-12-30T17:29:38.182Z,78.35
2017-12-30T17:32:05.646Z,78.96
2017-12-30T17:34:33.126Z,79.72
2017-12-30T17:37:00.638Z,80.09
2017-12-30T17:39:28.111Z,80.72
2017-12-30T17:41:55.569Z,80.83
2017-12-30T17:44:23.068Z,80.74
2017-12-30T17:46:50.573Z,80.67
2017-12-30T17:49:18.054Z,80.54
2017-12-30T17:51:45.528Z,81.10
2017-12-30T17:54:13.038Z,81.35
2017-12-30T17:56:40.557Z,81.51
2017-12-30T17:59:08.027Z,81.57
2017-12-30T18:01:35.548Z,81.84
2017-12-30T18:04:03.059Z,82.77
2017-12-30T18:06:30.774Z,83.55
2017-12-30T18:08:58.229Z,83.60
2017-12-30T18:11:25.721Z,83.21
2017-12-30T18:13:53.249Z,83.13
2017-12-30T18:16:20.707Z,83.49
2017-12-30T18:18:48.213Z,83.54
2017-12-30T18:21:16.896Z,83.56
2017-12-30T18:23:44.379Z,83.83
2017-12-30T18:26:11.878Z,83.94
2017-12-30T18:31:11.119Z,83.37
2017-12-30T18:33:38.659Z,84.01
2017-12-30T18:36:06.207Z,84.31
2017-12-30T18:38:34.234Z,84.30
2017-12-30T18:41:01.923Z,84.49
2017-12-30T18:43:29.982Z,84.54
2017-12-30T18:45:57.551Z,84.69
2017-12-30T18:48:25.046Z,84.38
2017-12-30T18:50:52.564Z,84.24
2017-12-30T18:53:20.054Z,84.04
2017-12-30T18:55:47.589Z,83.87
2017-12-30T18:58:15.056Z,83.69
2017-12-30T19:00:42.537Z,84.07
2017-12-30T19:03:10.040Z,84.06
2017-12-30T19:05:37.493Z,84.09
2017-12-30T19:08:04.964Z,83.67
2017-12-30T19:10:32.427Z,83.90
2017-12-30T19:12:59.859Z,83.79
2017-12-30T19:15:27.332Z,83.82
2017-12-30T19:17:54.772Z,82.80
2017-12-30T19:20:22.216Z,82.07
2017-12-30T19:22:49.744Z,81.74
2017-12-30T19:25:17.941Z,81.37
2017-12-30T19:27:45.478Z,81.52
2017-12-30T19:30:13.006Z,81.91
2017-12-30T19:32:40.495Z,81.89
2017-12-30T19:35:08.018Z,81.04
2017-12-30T19:37:35.604Z,81.42
2017-12-30T19:40:03.119Z,80.93
2017-12-30T19:42:30.839Z,81.06
2017-12-30T19:44:58.881Z,81.65
2017-12-30T19:47:26.433Z,81.83
2017-12-30T19:49:53.972Z,82.15
2017-12-30T19:52:21.624Z,81.54
2017-12-30T19:54:49.187Z,81.72
2017-12-30T19:57:16.755Z,82.35
2017-12-30T19:59:44.267Z,82.67
2017-12-30T20:02:11.868Z,82.55
2017-12-30T20:04:39.480Z,83.35
2017-12-30T20:07:07.030Z,83.54
2017-12-30T20:09:34.597Z,83.85
2017-12-30T20:12:02.151Z,84.28
2017-12-30T20:14:30.605Z,84.73
2017-12-30T20:16:58.148Z,84.75
2017-12-30T20:19:25.730Z,85.03
2017-12-30T20:21:53.361Z,85.06
2017-12-30T20:24:20.935Z,85.19
2017-12-30T20:26:48.568Z,85.27
2017-12-30T20:29:16.215Z,85.34
2017-12-30T20:31:44.044Z,85.42
2017-12-30T20:34:11.726Z,85.32
2017-12-30T20:36:39.396Z,85.47
2017-12-30T20:39:07.090Z,85.70
2017-12-30T20:41:34.747Z,85.80
2017-12-30T20:44:02.442Z,86.06
2017-12-30T20:46:30.649Z,86.05
2017-12-30T20:48:58.416Z,86.45
2017-12-30T20:51:26.145Z,86.69
2017-12-30T20:53:54.131Z,86.88
2017-12-30T20:56:21.945Z,86.96
2017-12-30T20:58:49.676Z,86.98
2017-12-30T21:01:17.508Z,87.01
2017-12-30T21:03:45.223Z,87.17
2017-12-30T21:06:12.935Z,87.25
2017-12-30T21:08:40.717Z,87.06
2017-12-30T21:11:08.459Z,86.79
2017-12-30T21:13:36.120Z,86.79
2017-12-30T21:16:03.860Z,86.65
2017-12-30T21:18:31.528Z,86.48
2017-12-30T21:20:59.204Z,86.50
2017-12-30T21:23:27.526Z,86.66
2017-12-30T21:25:55.648Z,86.87
2017-12-30T21:28:23.278Z,86.99
2017-12-30T21:30:50.913Z,86.99
2017-12-30T21:33:18.621Z,87.09
2017-12-30T21:35:46.200Z,87.43
2017-12-30T21:38:13.828Z,87.44
2017-12-30T21:40:41.507Z,87.30
2017-12-30T21:43:09.054Z,87.29
2017-12-30T21:45:36.656Z,87.24
2017-12-30T21:48:04.238Z,87.08
2017-12-30T21:50:32.059Z,87.05
2017-12-30T21:52:59.641Z,86.82
2017-12-30T21:55:27.327Z,86.97
2017-12-30T21:57:54.868Z,87.15
2017-12-30T22:00:22.427Z,87.52
2017-12-30T22:02:49.921Z,87.89
2017-12-30T22:05:17.497Z,87.84
2017-12-30T22:07:45.132Z,87.92
2017-12-30T22:10:12.805Z,87.99
2017-12-30T22:12:40.300Z,87.62
2017-12-30T22:15:08.229Z,87.80
2017-12-30T22:17:35.850Z,87.57
2017-12-30T22:20:03.436Z,87.74
2017-12-30T22:22:30.960Z,87.86
2017-12-30T22:24:58.834Z,88.06
2017-12-30T22:27:26.651Z,87.81
2017-12-30T22:29:54.240Z,87.82
2017-12-30T22:32:21.968Z,87.93
2017-12-30T22:34:49.500Z,88.00
2017-12-30T22:37:16.972Z,88.00
2017-12-30T22:39:44.521Z,88.01
2017-12-30T22:42:11.992Z,88.10
2017-12-30T22:44:39.558Z,88.08
2017-12-30T22:47:07.803Z,87.97
2017-12-30T22:49:36.059Z,87.87
2017-12-30T22:52:04.247Z,87.74
2017-12-30T22:54:32.156Z,87.68
2017-12-30T22:57:00.024Z,87.81
2017-12-30T22:59:28.883Z,87.88
2017-12-30T23:01:57.205Z,87.97
2017-12-30T23:04:25.554Z,88.03
2017-12-30T23:06:54.827Z,87.68
2017-12-30T23:09:23.076Z,87.89
2017-12-30T23:11:51.727Z,87.60
2017-12-30T23:14:19.769Z,87.70
2017-12-30T23:16:48.458Z,88.06
2017-12-30T23:19:17.092Z,88.23
2017-12-30T23:21:46.041Z,88.38
2017-12-30T23:24:14.911Z,88.06
2017-12-30T23:26:43.456Z,88.53
2017-12-30T23:29:12.357Z,88.90
2017-12-30T23:31:40.313Z,89.08
2017-12-30T23:34:08.370Z,88.81
2017-12-30T23:36:40.450Z,88.57
2017-12-30T23:39:08.258Z,87.94
2017-12-30T23:41:36.112Z,88.37
2017-12-30T23:44:03.951Z,88.73
2017-12-30T23:46:32.409Z,88.82
2017-12-30T23:49:00.761Z,88.93
2017-12-30T23:51:29.048Z,88.94
2017-12-30T23:53:57.313Z,88.80
2017-12-30T23:56:25.657Z,88.77
2017-12-30T23:58:53.734Z,88.72
